createdAt,value
2019-03-23T00:01:04.772Z,15.83
2019-03-23T00:03:34.568Z,15.79
2019-03-23T00:06:04.126Z,15.76
2019-03-23T00:08:33.692Z,15.73
2019-03-23T00:11:03.261Z,15.69
2019-03-23T00:13:32.842Z,15.64
2019-03-23T00:16:02.448Z,15.59
2019-03-23T00:18:31.941Z,15.55
2019-03-23T00:21:01.517Z,15.51
2019-03-23T00:23:31.013Z,15.48
2019-03-23T00:26:00.616Z,15.44
2019-03-23T00:28:30.187Z,15.39
2019-03-23T00:30:59.755Z,15.34
2019-03-23T00:33:29.445Z,15.31
2019-03-23T00:35:59.014Z,15.27
2019-03-23T00:38:28.660Z,15.25
2019-03-23T00:40:58.247Z,15.21
2019-03-23T00:43:27.733Z,15.19
2019-03-23T00:45:57.367Z,15.16
2019-03-23T00:48:26.993Z,15.12
2019-03-23T00:50:56.462Z,15.08
2019-03-23T00:53:25.934Z,15.05
2019-03-23T00:55:55.446Z,15.02
2019-03-23T00:58:25.062Z,15.00
2019-03-23T01:00:54.500Z,14.96
2019-03-23T01:03:24.018Z,14.94
2019-03-23T01:05:53.630Z,14.91
2019-03-23T01:08:23.261Z,14.89
2019-03-23T01:10:52.836Z,14.86
2019-03-23T01:13:22.340Z,14.83
2019-03-23T01:15:51.893Z,14.81
2019-03-23T01:18:21.384Z,14.75
2019-03-23T01:20:50.905Z,14.71
2019-03-23T01:23:20.468Z,14.69
2019-03-23T01:25:50.005Z,14.64
2019-03-23T01:28:19.554Z,14.62
2019-03-23T01:30:49.063Z,14.61
2019-03-23T01:33:18.848Z,14.57
2019-03-23T01:35:48.459Z,14.54
2019-03-23T01:38:18.071Z,14.50
2019-03-23T01:40:47.662Z,14.46
2019-03-23T01:43:18.590Z,14.44
2019-03-23T01:45:48.184Z,14.41
2019-03-23T01:48:17.815Z,14.37
2019-03-23T01:50:47.524Z,14.34
2019-03-23T01:53:18.340Z,14.32
2019-03-23T01:55:47.987Z,14.27
2019-03-23T01:58:17.640Z,14.23
2019-03-23T02:00:47.312Z,14.21
2019-03-23T02:03:18.831Z,14.16
2019-03-23T02:05:48.784Z,14.13
2019-03-23T02:08:18.455Z,14.10
2019-03-23T02:10:48.132Z,14.09
2019-03-23T02:13:18.306Z,14.06
2019-03-23T02:15:47.911Z,14.00
2019-03-23T02:18:17.582Z,13.98
2019-03-23T02:20:47.281Z,13.95
2019-03-23T02:23:16.988Z,13.92
2019-03-23T02:25:46.600Z,13.89
2019-03-23T02:28:16.248Z,13.86
2019-03-23T02:30:45.895Z,13.84
2019-03-23T02:33:15.514Z,13.81
2019-03-23T02:35:45.152Z,13.78
2019-03-23T02:38:14.871Z,13.74
2019-03-23T02:40:44.577Z,13.74
2019-03-23T02:43:14.247Z,13.72
2019-03-23T02:45:43.918Z,13.68
2019-03-23T02:48:13.627Z,13.66
2019-03-23T02:50:43.257Z,13.64
2019-03-23T02:53:13.021Z,13.63
2019-03-23T02:55:42.658Z,13.59
2019-03-23T02:58:12.357Z,13.60
2019-03-23T03:00:42.083Z,13.56
2019-03-23T03:03:11.819Z,13.53
2019-03-23T03:05:41.532Z,13.52
2019-03-23T03:08:11.200Z,13.49
2019-03-23T03:10:41.134Z,13.47
2019-03-23T03:13:10.757Z,13.46
2019-03-23T03:15:40.430Z,13.44
2019-03-23T03:18:10.083Z,13.43
2019-03-23T03:20:39.856Z,13.39
2019-03-23T03:23:09.460Z,13.38
2019-03-23T03:25:39.117Z,13.36
2019-03-23T03:28:08.771Z,13.35
2019-03-23T03:30:38.444Z,13.29
2019-03-23T03:33:08.047Z,13.25
2019-03-23T03:35:37.684Z,13.20
2019-03-23T03:38:07.294Z,13.18
2019-03-23T03:40:36.889Z,13.20
2019-03-23T03:43:06.475Z,13.24
2019-03-23T03:45:36.156Z,13.31
2019-03-23T03:48:05.795Z,13.39
2019-03-23T03:50:35.467Z,13.42
2019-03-23T03:53:05.079Z,13.42
2019-03-23T03:55:34.732Z,13.44
2019-03-23T03:58:04.351Z,13.42
2019-03-23T04:00:34.005Z,13.44
2019-03-23T04:03:03.603Z,13.45
2019-03-23T04:05:33.299Z,13.47
2019-03-23T04:08:11.195Z,13.50
2019-03-23T04:10:34.276Z,13.50
2019-03-23T04:13:03.918Z,13.48
2019-03-23T04:15:33.621Z,13.49
2019-03-23T04:18:03.377Z,13.52
2019-03-23T04:20:33.036Z,13.53
2019-03-23T04:23:02.658Z,13.54
2019-03-23T04:25:32.323Z,13.57
2019-03-23T04:28:01.965Z,13.57
2019-03-23T04:30:31.625Z,13.52
2019-03-23T04:33:01.263Z,13.53
2019-03-23T04:35:30.885Z,13.52
2019-03-23T04:38:00.538Z,13.53
2019-03-23T04:40:30.245Z,13.51
2019-03-23T04:42:59.909Z,13.53
2019-03-23T04:45:29.595Z,13.50
2019-03-23T04:47:59.204Z,13.50
2019-03-23T04:50:28.855Z,13.49
2019-03-23T04:52:58.498Z,13.48
2019-03-23T04:55:28.397Z,13.45
2019-03-23T04:57:58.037Z,13.43
2019-03-23T05:00:27.749Z,13.40
2019-03-23T05:02:57.383Z,13.39
2019-03-23T05:05:27.132Z,13.40
2019-03-23T05:07:56.775Z,13.41
2019-03-23T05:10:26.562Z,13.41
2019-03-23T05:12:56.237Z,13.37
2019-03-23T05:15:26.014Z,13.36
2019-03-23T05:17:55.664Z,13.36
2019-03-23T05:20:29.868Z,13.36
2019-03-23T05:22:59.703Z,13.40
2019-03-23T05:25:29.470Z,13.33
2019-03-23T05:27:59.234Z,13.32
2019-03-23T05:30:29.142Z,13.32
2019-03-23T05:32:58.839Z,13.34
2019-03-23T05:35:28.567Z,13.35
2019-03-23T05:37:58.187Z,13.36
2019-03-23T05:40:27.939Z,13.36
2019-03-23T05:42:57.623Z,13.37
2019-03-23T05:45:27.291Z,13.38
2019-03-23T05:47:56.913Z,13.34
2019-03-23T05:50:26.660Z,13.36
2019-03-23T05:52:56.361Z,13.35
2019-03-23T05:55:26.038Z,13.34
2019-03-23T05:57:55.688Z,13.37
2019-03-23T06:00:25.356Z,13.35
2019-03-23T06:02:55.037Z,13.39
2019-03-23T06:05:24.855Z,13.38
2019-03-23T06:07:54.516Z,13.41
2019-03-23T06:10:24.114Z,13.42
2019-03-23T06:12:53.783Z,13.42
2019-03-23T06:15:23.397Z,13.42
2019-03-23T06:17:53.151Z,13.39
2019-03-23T06:20:22.774Z,13.39
2019-03-23T06:22:52.451Z,13.42
2019-03-23T06:25:22.150Z,13.47
2019-03-23T06:27:51.774Z,13.50
2019-03-23T06:30:21.391Z,13.53
2019-03-23T06:32:51.052Z,13.58
2019-03-23T06:35:20.646Z,13.63
2019-03-23T06:37:50.308Z,13.66
2019-03-23T06:40:19.908Z,13.67
2019-03-23T06:42:59.355Z,13.69
2019-03-23T06:45:20.989Z,13.68
2019-03-23T06:47:50.668Z,13.71
2019-03-23T06:50:20.341Z,13.67
2019-03-23T06:52:49.979Z,13.64
2019-03-23T06:55:19.544Z,13.65
2019-03-23T06:57:49.317Z,13.64
2019-03-23T07:00:18.984Z,13.69
2019-03-23T07:02:48.631Z,13.73
2019-03-23T07:05:18.198Z,13.79
2019-03-23T07:07:47.893Z,13.80
2019-03-23T07:10:17.477Z,13.84
2019-03-23T07:12:47.196Z,13.84
2019-03-23T07:15:20.397Z,13.89
2019-03-23T07:17:48.294Z,13.92
2019-03-23T07:20:17.932Z,13.97
2019-03-23T07:22:47.577Z,14.00
2019-03-23T07:25:17.207Z,14.06
2019-03-23T07:27:46.932Z,14.07
2019-03-23T07:30:16.685Z,14.10
2019-03-23T07:32:46.328Z,14.11
2019-03-23T07:35:16.058Z,14.12
2019-03-23T07:37:45.708Z,14.13
2019-03-23T07:40:15.322Z,14.16
2019-03-23T07:42:45.270Z,14.21
2019-03-23T07:45:14.894Z,14.22
2019-03-23T07:47:44.525Z,14.27
2019-03-23T07:50:14.363Z,14.32
2019-03-23T07:52:44.005Z,14.36
2019-03-23T07:55:16.656Z,14.38
2019-03-23T07:57:46.441Z,14.37
2019-03-23T08:00:17.867Z,14.37
2019-03-23T08:02:47.520Z,14.40
2019-03-23T08:05:17.204Z,14.43
2019-03-23T08:07:46.840Z,14.48
2019-03-23T08:10:30.262Z,14.53
2019-03-23T08:12:59.903Z,14.56
2019-03-23T08:15:29.660Z,14.58
2019-03-23T08:17:59.311Z,14.62
2019-03-23T08:20:28.920Z,14.64
2019-03-23T08:22:58.513Z,14.67
2019-03-23T08:25:28.276Z,14.72
2019-03-23T08:27:58.187Z,14.72
2019-03-23T08:30:27.820Z,14.72
2019-03-23T08:32:57.451Z,14.76
2019-03-23T08:35:27.235Z,14.80
2019-03-23T08:37:56.907Z,14.82
2019-03-23T08:40:26.559Z,14.82
2019-03-23T08:42:56.532Z,14.86
2019-03-23T08:45:26.205Z,14.87
2019-03-23T08:47:55.928Z,14.86
2019-03-23T08:50:25.622Z,14.86
2019-03-23T08:52:55.365Z,14.98
2019-03-23T08:55:25.117Z,15.06
2019-03-23T08:57:54.817Z,15.16
2019-03-23T09:00:24.484Z,15.22
2019-03-23T09:02:54.188Z,15.27
2019-03-23T09:05:24.001Z,15.35
2019-03-23T09:07:53.710Z,15.40
2019-03-23T09:10:23.421Z,15.47
2019-03-23T09:12:53.304Z,15.51
2019-03-23T09:15:23.074Z,15.55
2019-03-23T09:17:52.718Z,15.44
2019-03-23T09:20:22.419Z,15.71
2019-03-23T09:22:52.821Z,15.75
2019-03-23T09:25:22.922Z,15.76
2019-03-23T09:27:52.685Z,15.83
2019-03-23T09:30:22.401Z,15.90
2019-03-23T09:32:52.050Z,15.98
2019-03-23T09:35:21.746Z,16.06
2019-03-23T09:37:51.416Z,16.13
2019-03-23T09:40:21.110Z,16.23
2019-03-23T09:42:50.900Z,16.29
2019-03-23T09:45:20.658Z,16.37
2019-03-23T09:47:50.282Z,16.43
2019-03-23T09:50:20.041Z,16.47
2019-03-23T09:52:49.884Z,16.52
2019-03-23T09:55:19.539Z,16.56
2019-03-23T09:57:49.200Z,16.56
2019-03-23T10:00:18.883Z,16.58
2019-03-23T10:02:48.489Z,16.60
2019-03-23T10:05:19.327Z,16.64
2019-03-23T10:07:49.096Z,16.67
2019-03-23T10:10:22.079Z,16.75
2019-03-23T10:12:53.091Z,16.77
2019-03-23T10:15:22.915Z,16.76
2019-03-23T10:17:52.682Z,16.74
2019-03-23T10:20:22.375Z,16.78
2019-03-23T10:22:52.077Z,16.78
2019-03-23T10:25:21.917Z,16.78
2019-03-23T10:27:51.670Z,16.80
2019-03-23T10:30:21.379Z,16.80
2019-03-23T10:32:51.147Z,16.82
2019-03-23T10:35:20.952Z,16.80
2019-03-23T10:37:51.074Z,16.81
2019-03-23T10:40:20.770Z,16.80
2019-03-23T10:42:50.622Z,16.80
2019-03-23T10:45:20.362Z,16.79
2019-03-23T10:47:50.350Z,16.75
2019-03-23T10:50:20.100Z,16.72
2019-03-23T10:52:49.912Z,16.70
2019-03-23T10:55:19.662Z,16.68
2019-03-23T10:57:49.475Z,16.70
2019-03-23T11:00:19.298Z,16.71
2019-03-23T11:02:49.087Z,16.73
2019-03-23T11:05:18.826Z,16.75
2019-03-23T11:07:50.747Z,16.74
2019-03-23T11:10:20.457Z,16.76
2019-03-23T11:12:50.110Z,16.76
2019-03-23T11:15:20.172Z,16.77
2019-03-23T11:17:49.906Z,16.76
2019-03-23T11:20:20.281Z,16.79
2019-03-23T11:22:50.124Z,16.82
2019-03-23T11:25:19.926Z,16.84
2019-03-23T11:27:49.736Z,16.89
2019-03-23T11:30:19.487Z,16.90
2019-03-23T11:32:49.257Z,16.98
2019-03-23T11:35:19.064Z,17.09
2019-03-23T11:37:49.222Z,17.23
2019-03-23T11:40:19.345Z,17.45
2019-03-23T11:42:50.404Z,17.74
2019-03-23T11:45:20.243Z,18.12
2019-03-23T11:47:50.054Z,18.56
2019-03-23T11:50:19.723Z,18.97
2019-03-23T11:52:49.476Z,19.26
2019-03-23T11:55:19.326Z,19.54
2019-03-23T11:57:49.162Z,19.88
2019-03-23T12:00:18.936Z,19.97
2019-03-23T12:02:48.602Z,19.89
2019-03-23T12:05:18.458Z,19.85
2019-03-23T12:07:48.279Z,19.77
2019-03-23T12:10:17.921Z,19.70
2019-03-23T12:12:47.615Z,19.67
2019-03-23T12:15:17.376Z,19.67
2019-03-23T12:17:47.160Z,19.93
2019-03-23T12:20:16.900Z,20.33
2019-03-23T12:22:46.547Z,20.63
2019-03-23T12:25:16.265Z,20.98
2019-03-23T12:27:45.901Z,21.48
2019-03-23T12:30:16.158Z,21.92
2019-03-23T12:32:45.749Z,21.98
2019-03-23T12:35:15.497Z,21.83
2019-03-23T12:37:45.171Z,21.63
2019-03-23T12:40:15.733Z,21.51
2019-03-23T12:42:45.525Z,21.48
2019-03-23T12:45:15.263Z,20.84
2019-03-23T12:47:45.113Z,21.18
2019-03-23T12:50:14.943Z,21.16
2019-03-23T12:52:44.856Z,21.08
2019-03-23T12:55:14.525Z,20.97
2019-03-23T12:57:44.179Z,20.81
2019-03-23T13:00:14.151Z,20.51
2019-03-23T13:02:43.823Z,20.32
2019-03-23T13:05:13.585Z,20.21
2019-03-23T13:07:43.241Z,20.10
2019-03-23T13:10:13.139Z,20.07
2019-03-23T13:12:42.952Z,20.00
2019-03-23T13:15:12.665Z,19.93
2019-03-23T13:17:42.328Z,19.86
2019-03-23T13:20:12.677Z,19.81
2019-03-23T13:22:42.921Z,19.84
2019-03-23T13:25:12.916Z,19.88
2019-03-23T13:27:42.999Z,19.98
2019-03-23T13:30:13.326Z,20.11
2019-03-23T13:32:42.964Z,20.25
2019-03-23T13:35:12.650Z,20.39
2019-03-23T13:37:42.258Z,20.54
2019-03-23T13:40:12.026Z,20.52
2019-03-23T13:42:41.735Z,20.54
2019-03-23T13:45:11.384Z,20.53
2019-03-23T13:47:42.775Z,20.55
2019-03-23T13:50:12.729Z,20.58
2019-03-23T13:52:49.198Z,20.50
2019-03-23T13:55:32.560Z,20.64
2019-03-23T13:58:12.326Z,20.68
2019-03-23T14:00:42.296Z,20.74
2019-03-23T14:03:11.967Z,20.79
2019-03-23T14:05:41.644Z,20.80
2019-03-23T14:08:11.270Z,20.79
2019-03-23T14:10:40.930Z,20.78
2019-03-23T14:13:10.685Z,20.68
2019-03-23T14:15:40.490Z,20.64
2019-03-23T14:18:10.185Z,20.62
2019-03-23T14:20:39.934Z,20.60
2019-03-23T14:23:09.889Z,20.53
2019-03-23T14:25:39.695Z,20.33
2019-03-23T14:28:09.544Z,20.19
2019-03-23T14:30:39.219Z,20.06
2019-03-23T14:33:08.984Z,20.00
2019-03-23T14:35:38.671Z,19.95
2019-03-23T14:38:08.307Z,19.87
2019-03-23T14:40:37.905Z,19.78
2019-03-23T14:43:07.578Z,19.73
2019-03-23T14:45:37.275Z,19.63
2019-03-23T14:48:06.894Z,19.56
2019-03-23T14:50:36.541Z,19.48
2019-03-23T14:53:07.681Z,19.41
2019-03-23T14:55:37.582Z,19.35
2019-03-23T14:58:07.294Z,19.32
2019-03-23T15:00:36.997Z,19.19
2019-03-23T15:03:06.630Z,19.13
2019-03-23T15:05:37.308Z,19.09
2019-03-23T15:08:07.407Z,19.02
2019-03-23T15:10:37.039Z,18.97
2019-03-23T15:13:06.749Z,18.94
2019-03-23T15:15:36.424Z,18.86
2019-03-23T15:18:06.193Z,18.81
2019-03-23T15:20:35.924Z,18.77
2019-03-23T15:23:05.563Z,18.72
2019-03-23T15:25:35.255Z,18.71
2019-03-23T15:28:04.954Z,18.67
2019-03-23T15:30:34.552Z,18.56
2019-03-23T15:33:04.264Z,18.51
2019-03-23T15:35:33.862Z,18.43
2019-03-23T15:38:03.580Z,18.43
2019-03-23T15:40:33.344Z,18.45
2019-03-23T15:43:03.165Z,18.46
2019-03-23T15:45:32.862Z,18.48
2019-03-23T15:48:02.554Z,18.45
2019-03-23T15:50:32.295Z,18.41
2019-03-23T15:53:02.000Z,18.41
2019-03-23T15:55:31.622Z,18.44
2019-03-23T15:58:02.384Z,18.46
2019-03-23T16:00:32.083Z,18.51
2019-03-23T16:03:02.071Z,18.43
2019-03-23T16:05:31.686Z,18.43
2019-03-23T16:08:01.357Z,18.44
2019-03-23T16:10:31.016Z,18.43
2019-03-23T16:13:00.799Z,18.46
2019-03-23T16:15:30.454Z,18.50
2019-03-23T16:18:01.668Z,18.49
2019-03-23T16:20:31.407Z,18.46
2019-03-23T16:23:01.005Z,18.41
2019-03-23T16:25:30.646Z,18.38
2019-03-23T16:28:00.267Z,18.27
2019-03-23T16:30:33.425Z,18.24
2019-03-23T16:33:03.061Z,18.18
2019-03-23T16:35:32.784Z,18.12
2019-03-23T16:38:02.417Z,18.11
2019-03-23T16:40:32.139Z,18.02
2019-03-23T16:43:01.922Z,17.98
2019-03-23T16:45:31.586Z,17.93
2019-03-23T16:48:01.437Z,17.90
2019-03-23T16:50:31.174Z,17.86
2019-03-23T16:53:00.797Z,17.75
2019-03-23T16:55:30.434Z,17.71
2019-03-23T16:58:00.141Z,17.71
2019-03-23T17:00:39.111Z,17.65
2019-03-23T17:03:08.783Z,17.62
2019-03-23T17:05:38.364Z,17.56
2019-03-23T17:08:08.104Z,17.55
2019-03-23T17:10:37.744Z,17.52
2019-03-23T17:13:07.537Z,17.49
2019-03-23T17:15:37.112Z,17.47
2019-03-23T17:18:06.818Z,17.39
2019-03-23T17:20:36.467Z,17.35
2019-03-23T17:23:06.119Z,17.33
2019-03-23T17:25:37.616Z,17.33
2019-03-23T17:28:07.209Z,17.32
2019-03-23T17:30:36.846Z,17.31
2019-03-23T17:33:08.871Z,17.32
2019-03-23T17:35:37.993Z,17.32
2019-03-23T17:38:07.666Z,17.27
2019-03-23T17:40:37.435Z,17.21
2019-03-23T17:43:07.406Z,17.16
2019-03-23T17:45:37.188Z,17.13
2019-03-23T17:48:06.853Z,17.10
2019-03-23T17:50:36.518Z,17.11
2019-03-23T17:53:06.268Z,17.07
2019-03-23T17:55:35.893Z,17.06
2019-03-23T17:58:05.770Z,17.05
2019-03-23T18:00:35.382Z,17.04
2019-03-23T18:03:05.038Z,17.02
2019-03-23T18:05:37.166Z,16.99
2019-03-23T18:08:06.807Z,16.96
2019-03-23T18:10:36.758Z,16.93
2019-03-23T18:13:16.124Z,16.90
2019-03-23T18:15:40.893Z,16.88
2019-03-23T18:18:10.521Z,16.86
2019-03-23T18:20:40.137Z,16.86
2019-03-23T18:23:09.798Z,16.85
2019-03-23T18:25:39.443Z,16.85
2019-03-23T18:28:09.115Z,16.86
2019-03-23T18:30:40.569Z,16.88
2019-03-23T18:33:10.210Z,16.92
2019-03-23T18:35:39.846Z,16.92
2019-03-23T18:38:09.739Z,16.90
2019-03-23T18:40:39.362Z,16.87
2019-03-23T18:43:10.565Z,16.87
2019-03-23T18:45:43.002Z,16.87
2019-03-23T18:48:12.627Z,16.85
2019-03-23T18:50:42.849Z,16.84
2019-03-23T18:53:12.682Z,16.86
2019-03-23T18:55:42.330Z,16.87
2019-03-23T18:58:11.935Z,16.87
2019-03-23T19:00:42.809Z,16.84
2019-03-23T19:03:12.574Z,16.82
2019-03-23T19:05:42.295Z,16.78
2019-03-23T19:08:12.165Z,16.76
2019-03-23T19:10:41.859Z,16.77
2019-03-23T19:13:11.488Z,16.74
2019-03-23T19:15:41.130Z,16.73
2019-03-23T19:18:10.788Z,16.72
2019-03-23T19:20:40.377Z,16.70
2019-03-23T19:23:10.456Z,16.71
2019-03-23T19:25:40.049Z,16.72
2019-03-23T19:28:09.980Z,16.72
2019-03-23T19:30:39.591Z,16.69
2019-03-23T19:33:09.318Z,16.66
2019-03-23T19:35:38.949Z,16.64
2019-03-23T19:38:08.634Z,16.62
2019-03-23T19:40:38.214Z,16.61
2019-03-23T19:43:07.971Z,16.58
2019-03-23T19:45:37.705Z,16.55
2019-03-23T19:48:07.462Z,16.48
2019-03-23T19:50:37.307Z,16.48
2019-03-23T19:53:06.959Z,16.45
2019-03-23T19:55:36.734Z,16.41
2019-03-23T19:58:06.467Z,16.42
2019-03-23T20:00:36.233Z,16.42
2019-03-23T20:03:06.076Z,16.40
2019-03-23T20:05:35.844Z,16.37
2019-03-23T20:08:05.484Z,16.36
2019-03-23T20:10:35.241Z,16.37
2019-03-23T20:13:05.072Z,16.36
2019-03-23T20:15:34.724Z,16.38
2019-03-23T20:18:04.454Z,16.37
2019-03-23T20:20:34.140Z,16.36
2019-03-23T20:23:03.797Z,16.29
2019-03-23T20:25:33.509Z,16.24
2019-03-23T20:28:03.199Z,16.23
2019-03-23T20:30:32.832Z,16.20
2019-03-23T20:33:03.880Z,16.15
2019-03-23T20:35:33.576Z,16.16
2019-03-23T20:38:03.247Z,16.14
2019-03-23T20:40:32.929Z,16.13
2019-03-23T20:43:05.524Z,16.13
2019-03-23T20:45:35.147Z,16.16
2019-03-23T20:48:04.869Z,16.15
2019-03-23T20:50:34.518Z,16.10
2019-03-23T20:53:04.271Z,16.04
2019-03-23T20:55:33.906Z,15.98
2019-03-23T20:58:04.601Z,15.93
2019-03-23T21:00:34.266Z,15.87
2019-03-23T21:03:04.627Z,15.86
2019-03-23T21:05:34.624Z,15.83
2019-03-23T21:08:04.560Z,15.83
2019-03-23T21:10:34.523Z,15.80
2019-03-23T21:13:04.715Z,15.79
2019-03-23T21:15:34.297Z,15.79
2019-03-23T21:18:03.949Z,15.82
2019-03-23T21:20:33.661Z,15.85
2019-03-23T21:23:04.432Z,15.85
2019-03-23T21:25:34.054Z,15.81
2019-03-23T21:28:03.733Z,15.81
2019-03-23T21:30:33.429Z,15.79
2019-03-23T21:33:03.154Z,15.80
2019-03-23T21:35:32.904Z,15.82
2019-03-23T21:38:02.663Z,15.80
2019-03-23T21:40:34.863Z,15.82
2019-03-23T21:43:06.182Z,15.81
2019-03-23T21:45:35.875Z,15.81
2019-03-23T21:48:05.544Z,15.78
2019-03-23T21:50:35.153Z,15.77
2019-03-23T21:53:06.705Z,15.77
2019-03-23T21:55:36.550Z,15.75
2019-03-23T21:58:06.242Z,15.73
2019-03-23T22:00:36.065Z,15.72
2019-03-23T22:03:05.850Z,15.60
2019-03-23T22:05:36.596Z,15.57
2019-03-23T22:08:06.811Z,15.55
2019-03-23T22:10:36.433Z,15.57
2019-03-23T22:13:06.860Z,15.58
2019-03-23T22:15:36.588Z,15.61
2019-03-23T22:18:06.203Z,15.58
2019-03-23T22:20:35.802Z,15.54
2019-03-23T22:23:06.374Z,15.53
2019-03-23T22:25:35.964Z,15.51
2019-03-23T22:28:05.630Z,15.49
2019-03-23T22:30:35.261Z,15.49
2019-03-23T22:33:05.071Z,15.54
2019-03-23T22:35:34.705Z,15.55
2019-03-23T22:38:04.402Z,15.55
2019-03-23T22:40:34.161Z,15.52
2019-03-23T22:43:03.820Z,15.48
2019-03-23T22:45:35.734Z,15.44
2019-03-23T22:48:04.909Z,15.41
2019-03-23T22:50:34.556Z,15.34
2019-03-23T22:53:05.142Z,15.28
2019-03-23T22:55:35.051Z,15.25
2019-03-23T22:58:04.748Z,15.24
2019-03-23T23:00:47.858Z,15.24
2019-03-23T23:03:17.500Z,15.24
2019-03-23T23:05:47.092Z,15.19
2019-03-23T23:08:16.667Z,15.14
2019-03-23T23:10:46.245Z,15.13
2019-03-23T23:13:15.855Z,15.12
2019-03-23T23:15:45.466Z,15.12
2019-03-23T23:18:15.148Z,15.11
2019-03-23T23:20:44.821Z,15.10
2019-03-23T23:23:14.425Z,15.12
2019-03-23T23:25:45.387Z,15.11
2019-03-23T23:28:15.494Z,15.10
2019-03-23T23:30:45.921Z,15.08
2019-03-23T23:33:15.583Z,15.08
2019-03-23T23:35:45.168Z,15.06
2019-03-23T23:38:14.835Z,15.07
2019-03-23T23:40:44.433Z,15.07
2019-03-23T23:43:14.157Z,15.09
2019-03-23T23:45:43.819Z,15.08
2019-03-23T23:48:13.486Z,15.07
2019-03-23T23:50:43.206Z,15.05
2019-03-23T23:53:12.881Z,15.03
2019-03-23T23:55:43.339Z,14.99
2019-03-23T23:58:12.979Z,14.98
